13-14 Girls

13-14 Girls 4000 Meter Run					
Place	Bib	Name	Team	Time	Points
1	2421	Ella Borsheim	13 Federal Way Track	13:52.6	
					
2	1274	Brooklyn Biancamano	06 24-Unattached	13:54.5	
					
3	2528	Julia Smith	13 Speed Unlimited	13:55.1	1
					
4	654	Carmen Alder	03 Franklin Elite Athletics Tr	14:04.6	
					
5	3145	Isis Orellana-Diaz	15 Valley United Track Club A	14:07.1	2
					
6	2348	Chloe Foerster	13 Beaverton Youth Track	14:11.0	
					
7	3026	Emma Hadley	15 Quick Track Club	14:11.7	
					
8	1182	Alyssa Shope	05 17-Unattached	14:13.9	
					
9	2045	Eva Jess	10 Team Bliss	14:14.5	
					
10	3248	Annabella Veltcheva	16 14-Unattached	14:14.9	
					
11	1642	Ashlyn Keeney	08 Iowa Speed Track & Field Cl	14:15.4	
					
12	509	Camryn Wennersten	02 Racefaster	14:16.0	3
					
13	1986	Riley Stewart	10 Parker Panthers	14:16.6	4
					
14	1744	Cadence Lapp	10 32-Unattached	14:19.3	
					
15	1985	Isabella Prosceno	10 Parker Panthers	14:20.2	5
					
16	1990	Aidyn Woodall	10 Parker Panthers	14:22.1	6
					
17	365	Carmel Fitzgibbon	01 Waltham Track	14:24.5	7
					
18	1653	Berlyn Schutz	08 Lincoln Youth Track	14:24.9	
					
19	390	Charlotte Bednar	02 07-Unattached	14:28.9	
					
20	660	Molly Kuzma	03 Franklin Elite Athletics Tr	14:30.8	
					
21	2986	Tiani Goeson	15 Pacific Coast Shock Waves	14:32.3	
					
22	2068	Tate Beasley	11 34-Unattached	14:32.7	
					
23	106	Sophia Reynolds	01 Granite State Flash	14:33.6	8
					
24	2607	Taylor Jones	14 38-Unattached	14:33.9	
					
25	1524	Bridget Gallagher	07 Northside Saints A	14:34.0	9
					
26	1897	Aspen Fulbright	10 Kokopelli Racing Team	14:34.9	10
					
27	2885	Sophia Gutierrez	15 Equalizers Track A	14:44.2	11
					
28	2773	Sophia Gallo	14 Peninsula Flyers	14:45.4	
					
29	2040	Olivia Salter	10 Sports Warriors Track Club	14:47.6	
					
30	2694	Audrey Reed	14 Los Gatos A	14:47.9	12
					
31	313	Lily Borin	01 Sentinel Striders	14:48.2	13
					
32	1199	Erin Siver	05 19-Unattached	14:49.4	
					
33	2884	Sofia Gibson	15 Equalizers Track A	14:50.6	14
					
34	384	Abigail Broadley	01 Wild Endurance	14:51.3	
					
35	2462	Lauren Forster	13 North Idaho Track & Field	14:53.4	15
					
36	1652	Brianna Rinn	08 Lincoln Youth Track	14:53.6	
					
37	2889	Jadyn Zdanavage	15 Equalizers Track A	14:54.4	16
					
38	770	Clara Heppner	04 45-Unattached	14:54.4	
					
39	1996	Lily Mourer	10 Peak Performance Running	14:54.5	
					
40	1976	Abby MacLean	10 Parker Panthers	14:54.6	17
					
41	1084	Cayden Crismon	04 River Ridge Youth Track	14:54.9	
					
42	88	Bethany Graham	01 Granite State Flash	14:55.8	18
					
43	1185	Savannah Dennison	05 18-Unattached	14:57.6	
					
44	36	Delaney Hesler	01 Casco Bay Endurance	14:57.9	19
					
45	2547	Kate Laurent	13 Sun City	14:57.9	20
					
46	1399	Jamie Klavon	07 Carmel Distance Project A	14:58.8	21
					
47	215	Olivia Belt	01 NC Surge - Advanced Running	14:59.9	
					
48	2685	Christel Elkins	14 Los Gatos A	15:00.1	22
					
49	1523	Ashley Flick	07 Northside Saints A	15:00.8	23
					
50	1739	Mary Morgan	09 Triple Threat Racing	15:01.0	
					
51	750	Anna Richard	03 Sandhills Track	15:02.3	
					
52	1850	Lauren Walls-Portillo	10 El Paso Wings Track Club	15:03.1	24
					
53	2761	Ava Maier	14 Oak Hill Racing	15:03.5	
					
54	2287	Sophia Oliai	12 SpeedKIDZ Elite	15:03.5	25
					
55	33	Sierra Aponte-Clarke	01 Casco Bay Endurance	15:05.8	26
					
56	2921	Camille Lindsay	15 Lightning Youth Running Clu	15:06.1	27
					
57	1522	Lily Cridge	07 Northside Saints A	15:07.0	28
					
58	768	Rylee Evans	04 45-Unattached	15:09.4	
					
59	108	Chloe Trudel	01 Granite State Flash	15:10.4	29
					
60	1979	Cameron McConnell	10 Parker Panthers	15:10.9	30
					
61	2612	Sarah Skandera	14 38-Unattached	15:10.9	
					
62	2891	Ashlee Gallegos	15 Equalizers Track B	15:11.3	31
					
63	1464	Abby Beathea	07 Dirty South XC	15:11.8	
					
64	2696	Jannah Sheriff	14 Los Gatos A	15:12.1	32
					
65	2882	Teagan Carr	15 Equalizers Track A	15:12.2	33
					
66	2335	Keanna Krueger	13 36-Unattached	15:13.4	
					
67	2515	Maya Cantine	13 Speed Unlimited	15:13.9	34
					
68	2799	Cate Joaquin	14 Sacramento Elite	15:14.5	
					
69	2511	Kylee Shakespeare	13 South Hill Running	15:16.4	
					
70	3117	Isabella Duarte	15 Valley United Track Club A	15:17.4	35
					
71	2131	Reagan High	12 26-Unattached	15:17.5	
					
72	2500	Sloane Selenis	13 Rain City Flyers	15:17.7	
					
73	2602	Abigail Wall	13 Whisper Running	15:17.8	36
					
74	2281	Adele Clarke	12 SpeedKIDZ Elite	15:18.4	37
					
75	2561	Isabella Spencer	13 Sun City	15:18.5	38
					
76	894	Makenna Calbert	04 Etowah Youth Track	15:19.1	39
					
77	703	Sierra Puleo	03 Richmond Track & Field	15:21.3	
					
78	2347	Anika Thompson	13 Amazon Distance Project	15:23.0	
					
79	1225	Nicole Farnsley	05 Northeast Striders	15:23.1	
					
80	101	Anna O'Reilly	01 Granite State Flash	15:23.2	40
					
81	2555	Ciera Reyes	13 Sun City	15:23.3	41
					
82	2931	Celeste Ramirez	15 Lightning Youth Running Clu	15:23.9	42
					
83	3220	Cristal Gomez	16 14-Unattached	15:24.6	
					
84	2888	Julia Svartstrom	15 Equalizers Track A	15:25.7	43
					
85	90	Cassie Hemming	01 Granite State Flash	15:26.5	44
					
86	2686	Hannah Gehrt	14 Los Gatos A	15:26.5	45
					
87	2698	Anna Weirich	14 Los Gatos A	15:27.0	46
					
88	1191	Alexis Deighan	05 19-Unattached	15:27.9	
					
89	2741	Elizabeth Melcher	14 Mount Diablo Heat	15:28.5	47
					
90	116	Camille Bolduc	01 Green Mountain Athletic Ass	15:29.3	
					
91	1914	Lauren Boutelle	10 Landsharks Running	15:30.2	
					
92	2748	Jamie Say	14 Mount Diablo Heat	15:30.3	48
					
93	1735	Abigail Livingston	09 Triple Threat Racing	15:31.2	
					
94	343	Hope Tyska	01 Sentinel Striders	15:32.0	49
					
95	2596	Kira Mahaffy	13 Whisper Running	15:32.4	50
					
96	1910	Hope Stark	10 Kokopelli Racing Team	15:32.5	51
					
97	2374	Eva McIlraith	13 Bowerman Track	15:33.0	
					
98	3140	Ellaney Matarese	15 Valley United Track Club A	15:33.2	52
					
99	3253	Mei Chiang	16 1st Coast Track	15:33.6	
					
100	2705	Emily Minjares	14 Los Gatos B	15:34.1	
					
101	20	Charlotte Tysall	01 02-Unattached	15:34.4	
					
102	2886	Sarah Klem	15 Equalizers Track A	15:34.8	53
					
103	369	Charlotte Kouroriez	01 Waltham Track	15:34.8	54
					
104	2137	Ayanna Donwerth	12 43-Unattached	15:35.7	
					
105	309	Kaylie Armitage	01 Sentinel Striders	15:36.7	55
					
106	314	Bailee Brown	01 Sentinel Striders	15:37.4	56
					
107	1753	Skylar Charlie	10 Acoma Running	15:37.7	
					
108	1525	Beatriz Perez	07 Northside Saints A	15:37.9	57
					
109	3185	Jenna Milbrodt	15 Valley United Track Club B	15:38.3	
					
110	2504	Amelia Hoagland	13 Skagit Swift	15:38.3	
					
111	1972	Bryanna Hoffman	10 Parker Panthers	15:38.4	58
					
112	1969	Morgan Fox	10 Parker Panthers	15:38.8	59
					
113	192	Amy Pattelena	01 Nashua Pal Striders	15:39.3	60
					
114	2463	Dorothy Gallus	13 North Idaho Track & Field	15:39.4	61
					
115	1771	Devin Murphy	10 Boulder Mountain Warriors	15:40.4	
					
116	508	AnnaMarie Tretola	02 Racefaster	15:40.6	62
					
117	2895	Isabella Tasser	15 Equalizers Track B	15:41.5	63
					
118	158	Makaeli Boisvert	01 Nashua Pal Striders	15:41.6	64
					
119	392	Allison Lounsbury	02 07-Unattached	15:41.8	
					
120	1527	Lauren Turk	07 Northside Saints A	15:42.2	65
					
121	3329	Sydney Knodel	12 SpeedKIDZ Elite	15:44.5	66
					
122	16	Sophie St George	01 02-Unattached	15:44.7	
					
123	2595	Katelyn Flolo	13 Whisper Running	15:45.5	67
					
124	331	Rachael Mongeau	01 Sentinel Striders	15:45.7	68
					
125	2702	Fiona Herron	14 Los Gatos B	15:46.1	
					
126	2941	Bella Ungar	15 Lightning Youth Running Clu	15:47.5	69
					
127	1406	Alivia Romaniuk	07 Carmel Distance Project A	15:48.6	70
					
128	1521	Georgia Boothe	07 Northside Saints A	15:48.7	71
					
129	2817	Elle Marsyla	14 Woodside Wildebeests	15:49.1	
					
130	1598	Abriana Brown	08 20-Unattached	15:49.4	
					
131	120	Sierra Fisher	01 Green Mountain Athletic Ass	15:49.5	
					
132	620	Caitlin Peck	03 Fit 180 Athletics	15:49.5	72
					
133	2883	Sophia Dudley	15 Equalizers Track A	15:49.6	73
					
134	1526	Gillian Thompson	07 Northside Saints A	15:50.3	74
					
135	2284	Katherine Gann	12 SpeedKIDZ Elite	15:51.0	75
					
136	379	Ella Wozek	01 Waltham Track	15:51.4	76
					
137	109	Riley Clark	01 Greater Lowell Road Runners	15:51.5	
					
138	2733	Anna Gdowski	14 Mount Diablo Heat	15:52.7	77
					
139	1965	Kelly Cargo	10 Parker Panthers	15:53.1	
					
140	1600	Corey Gundert	08 20-Unattached	15:53.9	
					
141	7	Katherine Currie	01 02-Unattached	15:54.3	
					
142	603	Alyxandra Beausoleil	03 Fit 180 Athletics	15:55.0	78
					
143	87	Fiona Doherty	01 Granite State Flash	15:55.4	79
					
144	3160	Jordyn Walla	15 Valley United Track Club A	15:56.5	80
					
145	1222	Allie Clarkson	05 Northeast Striders	15:56.9	
					
146	2028	Emily Schrader	10 Sol Running Club	15:57.2	
					
147	918	Lexi Pavese	04 Etowah Youth Track	15:57.3	81
					
148	18	Delaney Swanson	01 02-Unattached	15:57.3	
					
149	2478	Lilian Smith	13 North Idaho Track & Field	15:57.4	82
					
150	3032	Stella Gladden	15 San Diego Waves Xtc	15:57.7	
					
151	2466	Fiona Hart	13 North Idaho Track & Field	15:58.0	83
					
152	2719	Kayli Gonzales	14 McFarland Track	15:58.5	84
					
153	2892	Lauren Landrith	15 Equalizers Track B	15:59.4	85
					
154	110	Kimmie Harding	01 Greater Lowell Road Runners	16:00.3	
					
155	2211	Kevriana Scott	12 Katy Express Track Club	16:01.0	
					
156	2543	Hannah Hilton	13 Sun City	16:01.3	86
					
157	890	Ella Bailey	04 Etowah Youth Track	16:01.8	87
					
158	2890	Alexis Buhman	15 Equalizers Track B	16:02.0	88
					
159	377	Avery Woolbert	01 Waltham Track	16:02.9	89
					
160	19	Abigail Touhey	01 02-Unattached	16:03.0	
					
161	971	Caroline Harris	04 Junior Wolverines	16:03.5	
					
162	1139	Lorel Golden	04 Walton Youth Track	16:04.0	90
					
163	1768	Leslie Janecek	10 Boulder Mountain Warriors	16:04.2	
					
164	621	Alyssa Preisano	03 Fit 180 Athletics	16:04.9	91
					
165	496	Emily Carter	02 Pacer Track	16:05.5	
					
166	973	Hannah Tillery	04 Junior Wolverines	16:05.9	
					
167	3059	Emma Miller	15 So Cal Roadrunners	16:06.3	
					
168	2693	Viveca Pannell	14 Los Gatos A	16:06.6	92
					
169	1268	Breia Smith	06 09-Unattached	16:06.6	
					
170	370	Clara Lake	01 Waltham Track	16:06.8	93
					
171	3312	Lara Aguzzi	01 Waltham Track	16:07.7	94
					
172	2853	Lily Widrig	15 Chino Hills Flash	16:07.7	
					
173	375	Violet Whitmer	01 Waltham Track	16:08.0	95
					
174	3161	Hayden Washington	15 Valley United Track Club A	16:08.1	96
					
175	2811	Yvonne Brien Miller	14 Woodside Wildebeests	16:08.2	
					
176	605	Kaitlin Capuano	03 Fit 180 Athletics	16:08.5	97
					
177	2008	Autumn McQuitty	10 Penguin Track	16:08.9	
					
178	2810	Meena Baher	14 Woodside Wildebeests	16:09.0	
					
179	2736	Sidney Kalin	14 Mount Diablo Heat	16:09.5	98
					
180	3094	Kelli Gaffney	15 Temecula Valley Time Machin	16:10.8	
					
181	1224	Hannah Ellis	05 Northeast Striders	16:11.4	
					
182	2894	Lindsay Rule	15 Equalizers Track B	16:11.4	99
					
183	141	Brynn Bergin	01 Litchfield Track	16:12.1	
					
184	480	Ella Spence	02 Lakeland Jr Track & Field L	16:12.2	
					
185	1582	Andi VanMeter	07 Southern Indiana Wolfpack	16:12.4	
					
186	623	Aleksandra Spencer	03 Fit 180 Athletics	16:12.5	100
					
187	507	Olivia Shattuck	02 Racefaster	16:12.5	101
					
188	462	Emily Houtz	02 Juniata Valley Striders	16:12.7	
					
189	510	Lilian Williams	02 Racefaster	16:13.0	102
					
190	876	Abigail Mchoul	04 Dekalb Trailblazers	16:13.0	103
					
191	1266	Catherine Ragsdale	06 09-Unattached	16:13.7	
					
192	1946	Megan Arganbright	10 NX Level Track	16:14.4	
					
193	2692	Veloria Pannell	14 Los Gatos A	16:15.0	104
					
194	1901	Emma Lindsey	10 Kokopelli Racing Team	16:15.5	105
					
195	2600	Emily Rosenkranz	13 Whisper Running	16:17.5	106
					
196	91	Erica James	01 Granite State Flash	16:17.5	107
					
197	1849	Kayla Huitron	10 El Paso Wings Track Club	16:17.8	108
					
198	780	Caroline Montini	04 45-Unattached	16:18.8	
					
199	1769	Sarah Keidan	10 Boulder Mountain Warriors	16:19.1	
					
200	1557	Kinsley Folsom	07 South Central Indiana Runni	16:19.8	
					
201	37	Hadley Poirier	01 Casco Bay Endurance	16:19.9	109
					
202	754	Caroline Blanton	03 Waxhaw Track	16:20.1	
					
203	561	Madeline Wells	03 13-Unattached	16:20.1	
					
204	1192	Haley Deighan	05 19-Unattached	16:20.5	
					
205	3245	Gabriella Rybinski	16 14-Unattached	16:20.8	
					
206	2690	Elvira Lundberg	14 Los Gatos A	16:21.4	
					
207	2908	Yesenia Capiz	15 Lightning Youth Running Clu	16:21.8	110
					
208	3286	Penelope Sosa	16 Miami Elite Track	16:22.2	
					
209	35	Megan Cunningham	01 Casco Bay Endurance	16:22.3	111
					
210	201	Elizabeth White	01 Nashua Pal Striders	16:22.5	112
					
211	2910	Desiree De La Riva	15 Lightning Youth Running Clu	16:22.5	113
					
212	1925	Kiera Potter	10 Landsharks Running	16:23.4	
					
213	2146	Sydney Osgood	12 43-Unattached	16:23.5	
					
214	2601	Callie Ulin	13 Whisper Running	16:23.5	114
					
215	429	Ava Dzurenda	02 Get Fit Families	16:23.8	
					
216	453	Patrice Forcey	02 Hershey Blaze	16:23.9	
					
217	345	Emma Nadolski	01 Speedy Kidz Running	16:24.1	
					
218	3055	Jennifer Lopez	15 So Cal Roadrunners	16:24.4	
					
219	1853	Breana Biggambler	10 Flagstaff Roam	16:25.3	
					
220	1407	Lilian Rose	07 Carmel Distance Project A	16:25.5	115
					
221	1121	Isabela Bazan	04 Walton Youth Track	16:25.9	116
					
222	430	Stella Fannie	02 Get Fit Families	16:26.4	
					
223	2728	Jocelyn Vasquez	14 McFarland Track	16:26.5	117
					
224	1729	Joslyn Stumblingbear	09 Southern Oklahoma/Wilson Co	16:29.9	
					
225	1520	Raegan Bohbrink	07 Northside Saints A	16:30.0	
					
226	2597	Ashley Mckinstry	13 Whisper Running	16:30.4	118
					
227	1366	Bailey Puckett	07 16-Unattached	16:31.3	
					
228	3218	Ava Flaherty	16 14-Unattached	16:31.5	
					
229	2723	Kaitlyn Hernandez	14 McFarland Track	16:31.8	119
					
230	34	Annabelle Brooks	01 Casco Bay Endurance	16:32.7	120
					
231	498	Madelyn Sellati	02 Pacer Track	16:33.5	
					
232	1588	Celia Barbieri	07 Tigers From The Prairie	16:33.8	
					
233	1635	Katherine Aman-Lavicky	08 Badger Track Club	16:35.9	
					
234	1579	Ellie Hall	07 Southern Indiana Wolfpack	16:36.7	
					
235	1405	Elyse Nelson	07 Carmel Distance Project A	16:37.1	121
					
236	170	Rose Goyette	01 Nashua Pal Striders	16:37.7	122
					
237	2746	Sydnie Nutter	14 Mount Diablo Heat	16:38.2	123
					
238	2887	Estella Knobbe	15 Equalizers Track A	16:39.0	
					
239	2738	Simone Long	14 Mount Diablo Heat	16:39.4	124
					
240	1412	Marianne Cadio	07 Carmel Distance Project B	16:39.5	
					
241	2599	Candice Owen	13 Whisper Running	16:39.7	125
					
242	760	Marlee Bowles	04 45-Unattached	16:40.0	
					
243	1414	Averi Weninger	07 Carmel Distance Project B	16:40.5	
					
244	1097	Susanna Rogers	04 Sequoyah Youth Track	16:41.0	
					
245	2717	Davianna Diaz	14 McFarland Track	16:41.4	126
					
246	1651	Megan Mahony	08 Lincoln Youth Track	16:42.9	
					
247	961	Audrey Etris	04 Jefferson Parks & Recreatio	16:43.0	
					
248	2342	Brede Gaston	13 Amazon Distance Project	16:43.5	
					
249	2283	Sophia Davis	12 SpeedKIDZ Elite	16:44.8	127
					
250	544	Maria DiBari	03 10-Unattached	16:45.6	
					
251	1428	Chloe Krueger	07 Columbus Running	16:46.8	
					
252	2598	Kiley O'Brien	13 Whisper Running	16:48.8	
					
253	55	Vivian Mendez	01 Danbury Flyers Tf&Xc Club	16:49.8	
					
254	468	Emma Barcelona	02 Lakeland Jr Track & Field L	16:51.7	
					
255	1020	Annika Deveau	04 Mt. Pleasant Track	16:52.5	128
					
256	1122	Sarah Bedell	04 Walton Youth Track	16:53.3	129
					
257	2095	Avery Hartey	11 Race Cats	16:53.6	
					
258	2549	Kara Mickelson	13 Sun City	16:54.0	130
					
259	916	Caroline Olvin	04 Etowah Youth Track	16:55.1	131
					
260	1262	Elizabeth Allen	06 09-Unattached	16:55.3	
					
261	2517	Rachel Jin	13 Speed Unlimited	16:55.8	132
					
262	1114	MacKenzie Meier	04 The Storm Track Club	16:57.4	
					
263	868	Haley Davis	04 Dekalb Trailblazers	16:57.7	133
					
264	264	Kayla Ondy	01 Nutmeg Striders	16:58.2	
					
265	932	Madeline Fisher	04 Great Strides	16:58.3	
					
266	1904	Leilani Luu	10 Kokopelli Racing Team	16:58.3	134
					
267	1868	Wheaten Smith	10 Flagstaff Roam	16:59.5	
					
268	611	Hannah Green	03 Fit 180 Athletics	17:01.8	135
					
269	1220	Larra Arnold	05 Northeast Striders	17:02.6	
					
270	1594	Olivia Ahrens	08 20-Unattached	17:03.8	
					
271	2713	Bianca Carrillo	14 McFarland Track	17:03.8	136
					
272	175	Mackenzie Husson	01 Nashua Pal Striders	17:05.9	137
					
273	895	Natalie Calbert	04 Etowah Youth Track	17:08.1	138
					
274	2452	Gracie Averill	13 North Idaho Track & Field	17:08.2	139
					
275	920	Gabriella Suders	04 Etowah Youth Track	17:08.4	140
					
276	751	Lillian Richard	03 Sandhills Track	17:09.2	
					
277	1376	Victoria Neudecker	07 21-Unattached	17:09.4	
					
278	1851	Destiny Well	10 El Paso Wings Track Club	17:09.9	141
					
279	336	Elizabeth Pickering	01 Sentinel Striders	17:10.0	142
					
280	1528	Brooke Lahee	07 Northside Saints B	17:11.1	
					
281	3133	Mercedes Javelera	15 Valley United Track Club A	17:12.5	143
					
282	607	Riley Corn	03 Fit 180 Athletics	17:12.9	144
					
283	2107	Anna Nelson	11 Race Cats	17:13.7	
					
284	2320	Yasmine Mejia	12 Track Houston Youth Track	17:15.3	145
					
285	624	Paige Starkie	03 Fit 180 Athletics	17:15.9	
					
286	1427	Julie Klaus	07 Columbus Running	17:18.5	
					
287	1567	Lillian Sunbury	07 South Central Indiana Runni	17:19.1	
					
288	1155	Alex Murray	04 Walton Youth Track	17:19.2	146
					
289	1402	Grace Miller	07 Carmel Distance Project A	17:19.4	147
					
290	102	Madelyn Petersen	01 Granite State Flash	17:19.7	
					
291	1154	Ava Mitravich	04 Walton Youth Track	17:19.9	148
					
292	2204	Makenna Connolly	12 Katy Express Track Club	17:20.5	
					
293	1730	Mercedes Stumblingbear	09 Southern Oklahoma/Wilson Co	17:21.0	
					
294	1286	Marina Givens	06 24-Unattached	17:23.8	
					
295	163	Meghan Conway	01 Nashua Pal Striders	17:24.0	149
					
296	540	Margaret Zhu	02 Westfield Area Y Flyers	17:24.7	
					
297	1683	Brianne Norris	09 27-Unattached	17:25.1	
					
298	1404	Maya Murthy	07 Carmel Distance Project A	17:26.4	150
					
299	2512	Alyson Barrett	13 Speed Unlimited	17:27.2	151
					
300	797	Georgia Broomfield	04 Alpha Crush Running Club	17:29.1	
					
301	2235	Anyssa Martinez	12 Northwest Flyers Track	17:30.3	
					
302	1369	Alexis Sheets	07 16-Unattached	17:30.6	
					
303	1108	Megan Studley	04 Summerville Thunderbolts	17:31.8	
					
304	2323	Ella Newman	12 Track Houston Youth Track	17:31.9	152
					
305	2893	Parker Para	15 Equalizers Track B	17:33.2	153
					
306	1403	Sage Moore	07 Carmel Distance Project A	17:33.3	154
					
307	3144	Nicole Mirzaian	15 Valley United Track Club A	17:34.0	155
					
308	765	Jalin Delcid	04 45-Unattached	17:34.6	
					
309	784	Jennifer Price	04 45-Unattached	17:36.1	
					
310	497	Kaitlyn Hughes	02 Pacer Track	17:36.7	
					
311	187	Madeleine Moynihan	01 Nashua Pal Striders	17:37.8	156
					
312	1422	Alyssa Green	07 Columbus Running	17:38.5	
					
313	2529	Sydney Steskal	13 Speed Unlimited	17:39.1	157
					
314	2933	Daniela Reyes	15 Lightning Youth Running Clu	17:39.3	158
					
315	506	Lucia Rabolli	02 Racefaster	17:40.7	159
					
316	2312	Christine Goh	12 Track Houston Youth Track	17:43.9	160
					
317	3116	Emily Cruz	15 Valley United Track Club A	17:45.5	
					
318	2159	DayeAbosi Akpan	12 Family Point Speed	17:46.8	
					
319	829	Neelam Singh	04 Alpha Crush Running Club	17:49.3	
					
320	865	Caitlin Chalker	04 Dekalb Trailblazers	17:54.2	161
					
321	3235	Angelina Quirch	16 14-Unattached	17:55.9	
					
322	2212	Logan Warren	12 Katy Express Track Club	17:57.2	
					
323	315	Casey Conklin	01 Sentinel Striders	17:58.0	162
					
324	1647	Jasmine Ortega	08 Iowa Speed Track & Field Cl	17:59.2	
					
325	3294	Karah White	16 Pure Athletics	18:08.1	
					
326	3207	Sarah Barber	16 14-Unattached	18:08.2	
					
327	2940	Griselda Toxcoyoa	15 Lightning Youth Running Clu	18:09.8	163
					
328	1913	Hannah Willer	10 Kokopelli Racing Team	18:13.7	164
					
329	1648	Josie Pursley	08 Iowa Speed Track & Field Cl	18:21.0	
					
330	1408	Emily Slade	07 Carmel Distance Project A	18:22.3	
					
331	1189	Ellie Maurice	05 18-Unattached	18:26.0	
					
332	1234	Britney Braun	05 Team Kentucky Elite	18:35.2	
					
333	1304	Madison Tupper	06 24-Unattached	18:38.8	
					
334	2258	Ashley Uribe	12 Rxc	18:43.6	165
					
335	1661	Emma Belic	09 23-Unattached	18:44.5	
					
336	1269	Alexis Valentine	06 09-Unattached	18:46.7	
					
337	3205	Kathryn Adams	16 14-Unattached	18:50.1	
					
338	1290	Erin Olander	06 24-Unattached	18:51.9	
					
339	1681	Erica Duncan	09 27-Unattached	18:53.1	
					
340	878	Sarah Pruitt Messick	04 Dekalb Trailblazers	19:04.4	166
					
341	2243	Anette Carrizalez	12 Rxc	19:05.0	167
					
342	427	Freya Davis	02 Get Fit Families	19:08.1	
					
343	1697	Molly McClung	09 Ejc Track	19:09.4	
					
344	2294	Abihail Abby Mendenhall	12 Team Green Running	19:09.8	
					
345	1847	Daniela Chavez	10 El Paso Wings Track Club	19:10.8	168
					
346	1848	Paulina Gilbar	10 El Paso Wings Track Club	19:13.6	169
					
347	1156	Ashlei Murray	04 Walton Youth Track	19:16.1	170
					
348	2314	Lucia Klatt	12 Track Houston Youth Track	19:16.3	171
					
349	749	Elizabeth Kaczorowski	03 Sandhills Track	19:17.6	
					
350	3206	Emily Aroche	16 14-Unattached	19:31.6	
					
351	1015	Caroline Bull	04 Mt. Pleasant Track	19:34.7	172
					
352	2247	Jaqueline Gonzalez	12 Rxc	19:35.7	173
					
353	1632	Camden Hershberger	08 Ankeny Track & Field Club	19:41.5	
					
354	906	Katie Gantt	04 Etowah Youth Track	19:44.6	174
					
355	2158	Kharma Haltom	12 Beaumont Track	19:45.6	
					
356	897	Sydney Craig	04 Etowah Youth Track	19:49.4	
					
357	869	Sarah Elder	04 Dekalb Trailblazers	19:52.9	175
					
358	1022	Berklie Duffy	04 Mt. Pleasant Track	19:58.1	176
					
359	1056	Caitlyn Williamson	04 Mt. Pleasant Track	19:59.7	177
					
360	2326	Alyssa Rodriguez	12 Track Houston Youth Track	20:03.4	178
					
361	2245	Destiny Echeverria	12 Rxc	20:08.7	179
					
362	1126	Kennedy Calmer	04 Walton Youth Track	20:10.5	180
					
363	1699	Olivia Siefker	09 Ejc Track	20:16.7	
					
364	1285	Skyler Ellis	06 24-Unattached	20:23.1	
					
365	2272	Kloe Richardson	12 San Antonio Swift Track Clu	20:24.9	
					
366	2302	Leeah Chang	12 Track Houston Youth Track	20:33.4	181
					
367	1120	Abigail Bafs	04 Walton Youth Track	20:53.5	
					
368	1031	Evelyn Hadden	04 Mt. Pleasant Track	20:57.9	182
					
369	1023	Henley Duffy	04 Mt. Pleasant Track	21:27.1	183
					
370	2206	Mia Ferow	12 Katy Express Track Club	21:42.0	
					
371	2253	Jasmin Ramos	12 Rxc	23:50.6	184
					
372	1324	Ryleigh McKay	06 Most Blessed Sacrament Cros	27:47.3	
					
373	1013	Lauren Brown	04 Mt. Pleasant Track	29:52.0	185